Terminal Aerodrome Forecast
Issued by NWS

Home | Current Version | Previous Version | Text Only | Print | Product List | Glossary On
Versions: 1 2 3 4 5 6 7 8 9 10 11 12 13 14 15 16 17 18 19 20 21
000
FTUS43 KGRB 312342
TAFAUW
TAF
KAUW 312342Z 0100/0124 34006KT P6SM FEW040
     FM010800 01004KT P6SM SCT030
     FM011500 03007KT P6SM BKN030
     FM012000 04007KT P6SM SCT035=

USA.gov is the U.S. government's official web portal to all federal, state and local government web resources and services.